Terminal Aerodrome Forecast
Issued by NWS Omaha/Valley, NE

Home | Current Version | Previous Version | Graphics & Text | Print | Product List | Glossary On
Versions: 1 2 3 4 5 6 7 8 9 10 11 12 13 14 15 16 17 18 19 20 21 22 23 24 25 26
998
FTUS43 KOAX 292335
TAFOFK
TAF
KOFK 292335Z 3000/3024 30015G25KT P6SM BKN025 BKN050
      TEMPO 3002/3006 -SN BKN015
     FM300600 30015G25KT P6SM -SN OVC025
      TEMPO 3006/3010 5SM -SN OVC015
     FM301600 31018G26KT P6SM OVC015
     FM301900 31020KT P6SM OVC020=

USA.gov is the U.S. government's official web portal to all federal, state and local government web resources and services.